createdAt,value
2019-05-05T00:02:39.528Z,5.50
2019-05-05T00:05:12.320Z,5.70
2019-05-05T00:07:40.704Z,6.73
2019-05-05T00:10:10.653Z,7.40
2019-05-05T00:12:40.566Z,3.80
2019-05-05T00:15:26.497Z,5.50
2019-05-05T00:17:55.095Z,5.20
2019-05-05T00:20:25.071Z,7.73
2019-05-05T00:22:54.628Z,6.03
2019-05-05T00:25:24.845Z,6.37
2019-05-05T00:27:54.566Z,7.30
2019-05-05T00:30:24.501Z,6.07
2019-05-05T00:32:54.717Z,7.30
2019-05-05T00:35:25.113Z,5.70
2019-05-05T00:37:54.430Z,5.37
2019-05-05T00:40:24.851Z,6.47
2019-05-05T00:42:54.730Z,6.93
2019-05-05T00:45:25.113Z,5.97
2019-05-05T00:47:54.595Z,8.67
2019-05-05T00:50:25.101Z,6.27
2019-05-05T00:52:54.935Z,6.43
2019-05-05T00:55:24.423Z,17.17
2019-05-05T00:57:54.751Z,6.57
2019-05-05T01:00:40.711Z,7.27
2019-05-05T01:03:09.771Z,6.17
2019-05-05T01:05:48.393Z,6.17
2019-05-05T01:08:19.339Z,7.43
2019-05-05T01:10:47.578Z,6.77
2019-05-05T01:13:15.875Z,8.97
2019-05-05T01:15:44.853Z,9.87
2019-05-05T01:18:15.177Z,7.00
2019-05-05T01:20:44.830Z,11.87
2019-05-05T01:23:15.042Z,13.27
2019-05-05T01:25:45.525Z,14.40
2019-05-05T01:28:14.342Z,12.10
2019-05-05T01:30:44.537Z,12.83
2019-05-05T01:33:17.210Z,17.27
2019-05-05T01:35:45.539Z,13.83
2019-05-05T01:38:18.194Z,13.53
2019-05-05T01:40:57.076Z,12.77
2019-05-05T01:43:25.429Z,12.87
2019-05-05T01:45:54.632Z,15.80
2019-05-05T01:48:24.757Z,15.30
2019-05-05T01:50:54.373Z,18.33
2019-05-05T01:53:24.515Z,16.27
2019-05-05T01:55:54.221Z,17.87
2019-05-05T01:58:24.319Z,18.60
2019-05-05T02:00:54.588Z,17.13
2019-05-05T02:03:24.373Z,18.50
2019-05-05T02:05:54.573Z,21.00
2019-05-05T02:08:24.454Z,21.13
2019-05-05T02:10:54.745Z,21.93
2019-05-05T02:13:24.625Z,21.47
2019-05-05T02:15:55.110Z,22.90
2019-05-05T02:18:22.836Z,23.40
2019-05-05T02:21:05.340Z,20.60
2019-05-05T02:23:35.135Z,23.73
2019-05-05T02:26:04.709Z,25.07
2019-05-05T02:28:34.756Z,24.83
2019-05-05T02:31:05.614Z,24.87
2019-05-05T02:33:35.348Z,23.00
2019-05-05T02:36:05.549Z,23.57
2019-05-05T02:38:35.531Z,24.17
2019-05-05T02:41:05.005Z,26.07
2019-05-05T02:43:34.466Z,21.63
2019-05-05T02:46:08.369Z,23.50
2019-05-05T02:48:37.026Z,20.90
2019-05-05T02:51:06.989Z,25.10
2019-05-05T02:53:41.223Z,22.53
2019-05-05T02:56:11.233Z,23.20
2019-05-05T02:58:39.508Z,24.47
2019-05-05T03:01:09.483Z,22.00
2019-05-05T03:03:38.005Z,23.33
2019-05-05T03:06:06.350Z,21.73
2019-05-05T03:08:34.879Z,26.40
2019-05-05T03:11:03.879Z,30.27
2019-05-05T03:13:33.733Z,26.27
2019-05-05T03:16:18.676Z,23.63
2019-05-05T03:18:46.943Z,24.40
2019-05-05T03:21:15.199Z,26.23
2019-05-05T03:23:44.129Z,19.83
2019-05-05T03:26:14.094Z,20.90
2019-05-05T03:28:44.193Z,21.87
2019-05-05T03:31:15.502Z,20.47
2019-05-05T03:33:45.776Z,25.07
2019-05-05T03:36:14.029Z,20.40
2019-05-05T03:38:44.176Z,23.93
2019-05-05T03:41:13.984Z,24.40
2019-05-05T03:44:01.964Z,25.73
2019-05-05T03:46:31.363Z,23.00
2019-05-05T03:48:59.679Z,24.63
2019-05-05T03:51:27.924Z,24.70
2019-05-05T03:53:56.215Z,26.37
2019-05-05T03:56:24.474Z,27.00
2019-05-05T03:58:54.269Z,30.93
2019-05-05T04:01:34.630Z,24.83
2019-05-05T04:04:21.018Z,27.13
2019-05-05T04:06:51.060Z,29.67
2019-05-05T04:09:19.399Z,39.50
2019-05-05T04:11:48.211Z,32.80
2019-05-05T04:14:18.373Z,30.37
2019-05-05T04:17:03.885Z,30.97
2019-05-05T04:19:34.296Z,25.67
2019-05-05T04:22:04.204Z,24.03
2019-05-05T04:24:34.189Z,28.13
2019-05-05T04:27:03.999Z,30.60
2019-05-05T04:29:34.308Z,24.50
2019-05-05T04:32:04.468Z,23.00
2019-05-05T04:34:34.551Z,23.67
2019-05-05T04:37:04.161Z,26.10
2019-05-05T04:39:34.369Z,23.57
2019-05-05T04:42:04.673Z,26.03
2019-05-05T04:44:34.566Z,23.53
2019-05-05T04:47:04.399Z,23.77
2019-05-05T04:49:37.400Z,25.17
2019-05-05T04:52:19.130Z,22.07
2019-05-05T04:54:49.054Z,21.57
2019-05-05T04:57:17.316Z,23.93
2019-05-05T04:59:46.421Z,23.63
2019-05-05T05:02:23.601Z,26.00
2019-05-05T05:04:56.437Z,25.57
2019-05-05T05:07:25.074Z,24.97
2019-05-05T05:09:54.045Z,26.20
2019-05-05T05:12:23.756Z,27.87
2019-05-05T05:14:52.135Z,25.17
2019-05-05T05:17:22.056Z,23.07
2019-05-05T05:19:50.299Z,27.60
2019-05-05T05:22:18.609Z,24.60
2019-05-05T05:24:46.884Z,24.53
2019-05-05T05:27:15.139Z,31.27
2019-05-05T05:29:43.801Z,24.90
2019-05-05T05:32:12.161Z,23.77
2019-05-05T05:34:40.417Z,20.77
2019-05-05T05:37:08.709Z,23.27
2019-05-05T05:39:44.616Z,21.83
2019-05-05T05:42:13.761Z,19.73
2019-05-05T05:44:44.470Z,19.43
2019-05-05T05:47:17.404Z,20.37
2019-05-05T05:49:47.294Z,20.53
2019-05-05T05:52:18.996Z,22.57
2019-05-05T05:54:45.584Z,20.07
2019-05-05T05:57:13.869Z,24.70
2019-05-05T05:59:44.340Z,19.53
2019-05-05T06:02:15.222Z,19.80
2019-05-05T06:04:42.124Z,20.83
2019-05-05T06:07:10.403Z,22.50
2019-05-05T06:09:38.669Z,18.30
2019-05-05T06:12:06.956Z,18.83
2019-05-05T06:14:35.243Z,18.43
2019-05-05T06:17:04.250Z,17.73
2019-05-05T06:19:33.783Z,19.93
2019-05-05T06:22:03.564Z,19.90
2019-05-05T06:24:31.899Z,17.20
2019-05-05T06:27:00.240Z,16.23
2019-05-05T06:29:28.486Z,13.07
2019-05-05T06:31:56.771Z,13.67
2019-05-05T06:34:25.036Z,13.70
2019-05-05T06:36:53.760Z,14.33
2019-05-05T06:39:24.035Z,16.10
2019-05-05T06:41:56.482Z,15.80
2019-05-05T06:44:35.343Z,12.27
2019-05-05T06:47:17.331Z,12.13
2019-05-05T06:49:45.608Z,11.37
2019-05-05T06:52:14.363Z,16.23
2019-05-05T06:54:43.809Z,13.57
2019-05-05T06:57:13.686Z,13.00
2019-05-05T06:59:43.906Z,16.60
2019-05-05T07:02:14.385Z,22.13
2019-05-05T07:04:44.293Z,19.90
2019-05-05T07:07:14.379Z,15.20
2019-05-05T07:09:44.288Z,15.43
2019-05-05T07:12:13.826Z,15.93
2019-05-05T07:14:44.333Z,17.20
2019-05-05T07:17:14.142Z,22.90
2019-05-05T07:19:44.700Z,19.10
2019-05-05T07:22:14.071Z,15.57
2019-05-05T07:24:43.645Z,16.07
2019-05-05T07:27:13.900Z,24.80
2019-05-05T07:29:43.690Z,21.23
2019-05-05T07:32:14.130Z,19.60
2019-05-05T07:34:46.790Z,19.13
2019-05-05T07:37:15.050Z,26.63
2019-05-05T07:39:44.656Z,16.80
2019-05-05T07:42:13.698Z,18.97
2019-05-05T07:44:43.958Z,13.53
2019-05-05T07:47:12.134Z,13.93
2019-05-05T07:49:40.435Z,14.53
2019-05-05T07:52:08.825Z,16.07
2019-05-05T07:54:37.166Z,14.70
2019-05-05T07:57:05.443Z,14.97
2019-05-05T07:59:34.106Z,15.17
2019-05-05T08:02:04.008Z,21.97
2019-05-05T08:04:34.559Z,17.83
2019-05-05T08:07:04.064Z,16.37
2019-05-05T08:09:33.876Z,11.80
2019-05-05T08:12:04.216Z,15.80
2019-05-05T08:14:33.756Z,12.23
2019-05-05T08:17:06.864Z,14.23
2019-05-05T08:19:39.759Z,12.20
2019-05-05T08:22:08.084Z,13.17
2019-05-05T08:24:54.530Z,17.00
2019-05-05T08:27:30.419Z,12.00
2019-05-05T08:30:02.209Z,11.43
2019-05-05T08:32:35.683Z,13.40
2019-05-05T08:35:06.290Z,12.27
2019-05-05T08:37:34.558Z,10.93
2019-05-05T08:40:04.298Z,11.17
2019-05-05T08:42:33.885Z,11.20
2019-05-05T08:45:04.448Z,11.40
2019-05-05T08:47:34.433Z,14.23
2019-05-05T08:50:04.117Z,11.13
2019-05-05T08:52:34.164Z,7.97
2019-05-05T08:55:04.518Z,9.53
2019-05-05T08:57:34.111Z,13.50
2019-05-05T09:00:04.872Z,7.17
2019-05-05T09:02:34.079Z,11.33
2019-05-05T09:05:04.268Z,12.10
2019-05-05T09:07:33.637Z,12.13
2019-05-05T09:10:03.922Z,9.77
2019-05-05T09:12:33.928Z,13.20
2019-05-05T09:15:04.246Z,11.23
2019-05-05T09:17:33.644Z,7.30
2019-05-05T09:20:04.356Z,7.80
2019-05-05T09:22:32.037Z,8.20
2019-05-05T09:25:18.006Z,10.03
2019-05-05T09:27:50.945Z,11.63
2019-05-05T09:30:24.195Z,7.83
2019-05-05T09:32:54.080Z,10.33
2019-05-05T09:35:24.029Z,15.37
2019-05-05T09:37:53.604Z,8.87
2019-05-05T09:40:25.228Z,7.60
2019-05-05T09:42:53.621Z,10.63
2019-05-05T09:45:21.866Z,7.23
2019-05-05T09:47:50.188Z,8.13
2019-05-05T09:50:18.464Z,7.83
2019-05-05T09:52:46.744Z,5.87
2019-05-05T09:55:14.994Z,3.87
2019-05-05T09:57:43.894Z,4.53
2019-05-05T10:00:14.206Z,6.93
2019-05-05T10:02:44.212Z,6.03
2019-05-05T10:05:14.547Z,9.43
2019-05-05T10:07:44.085Z,10.93
2019-05-05T10:10:13.795Z,9.37
2019-05-05T10:12:44.385Z,5.63
2019-05-05T10:15:13.851Z,6.87
2019-05-05T10:17:42.728Z,7.40
2019-05-05T10:20:11.064Z,8.53
2019-05-05T10:22:39.343Z,7.33
2019-05-05T10:25:25.228Z,9.13
2019-05-05T10:27:54.061Z,8.60
2019-05-05T10:30:23.817Z,11.70
2019-05-05T10:32:54.392Z,9.80
2019-05-05T10:35:23.757Z,8.77
2019-05-05T10:37:54.326Z,10.43
2019-05-05T10:40:23.861Z,10.80
2019-05-05T10:42:53.951Z,13.87
2019-05-05T10:45:24.233Z,8.30
2019-05-05T10:47:52.380Z,16.73
2019-05-05T10:50:20.721Z,9.63
2019-05-05T10:52:49.074Z,18.73
2019-05-05T10:55:18.107Z,9.70
2019-05-05T10:57:46.364Z,14.70
2019-05-05T11:00:17.483Z,14.00
2019-05-05T11:02:45.823Z,17.07
2019-05-05T11:05:14.107Z,11.87
2019-05-05T11:07:42.350Z,9.60
2019-05-05T11:10:10.649Z,9.90
2019-05-05T11:12:38.947Z,8.57
2019-05-05T11:15:07.610Z,12.07
2019-05-05T11:17:35.886Z,11.07
2019-05-05T11:20:05.911Z,10.27
2019-05-05T11:22:34.656Z,12.80
2019-05-05T11:25:05.127Z,9.73
2019-05-05T11:27:34.508Z,9.70
2019-05-05T11:30:11.515Z,7.87
2019-05-05T11:32:57.212Z,8.87
2019-05-05T11:35:27.129Z,8.07
2019-05-05T11:37:55.399Z,10.93
2019-05-05T11:40:32.415Z,7.13
2019-05-05T11:43:00.675Z,7.17
2019-05-05T11:45:28.997Z,8.60
2019-05-05T11:47:57.313Z,10.23
2019-05-05T11:50:25.624Z,9.67
2019-05-05T11:52:54.502Z,8.27
2019-05-05T11:55:24.818Z,9.20
2019-05-05T11:57:54.478Z,9.20
2019-05-05T12:00:24.138Z,11.33
2019-05-05T12:02:54.314Z,11.63
2019-05-05T12:05:24.379Z,10.43
2019-05-05T12:07:54.135Z,8.83
2019-05-05T12:10:27.158Z,10.57
2019-05-05T12:12:56.236Z,8.63
2019-05-05T12:15:25.319Z,9.27
2019-05-05T12:17:54.569Z,6.13
2019-05-05T12:20:36.933Z,8.37
2019-05-05T12:23:05.279Z,9.20
2019-05-05T12:25:50.408Z,10.50
2019-05-05T12:28:38.022Z,13.43
2019-05-05T12:31:25.938Z,11.13
2019-05-05T12:33:54.963Z,10.70
2019-05-05T12:36:23.738Z,8.10
2019-05-05T12:38:54.403Z,12.77
2019-05-05T12:41:23.846Z,8.73
2019-05-05T12:43:54.589Z,14.00
2019-05-05T12:46:26.668Z,13.70
2019-05-05T12:48:56.586Z,11.73
2019-05-05T12:51:26.026Z,11.77
2019-05-05T12:53:54.579Z,15.00
2019-05-05T12:56:23.837Z,12.30
2019-05-05T12:58:54.334Z,11.37
2019-05-05T13:01:24.583Z,11.97
2019-05-05T13:03:54.268Z,9.63
2019-05-05T13:06:24.001Z,13.50
2019-05-05T13:08:52.425Z,10.53
2019-05-05T13:11:20.992Z,8.93
2019-05-05T13:13:49.450Z,7.97
2019-05-05T13:16:17.735Z,5.07
2019-05-05T13:18:46.011Z,9.07
2019-05-05T13:21:24.684Z,4.53
2019-05-05T13:24:10.706Z,7.97
2019-05-05T13:26:46.654Z,6.67
2019-05-05T13:29:15.015Z,8.13
2019-05-05T13:31:44.170Z,9.90
2019-05-05T13:34:13.659Z,6.73
2019-05-05T13:36:43.967Z,5.07
2019-05-05T13:39:14.190Z,4.13
2019-05-05T13:41:42.115Z,7.07
2019-05-05T13:44:12.100Z,7.40
2019-05-05T13:46:44.178Z,8.80
2019-05-05T13:49:31.485Z,7.20
2019-05-05T13:52:01.441Z,5.93
2019-05-05T13:54:29.793Z,5.60
2019-05-05T13:56:58.130Z,7.50
2019-05-05T13:59:26.491Z,6.23
2019-05-05T14:01:54.789Z,4.77
2019-05-05T14:04:23.078Z,6.53
2019-05-05T14:06:51.408Z,7.10
2019-05-05T14:09:19.717Z,7.13
2019-05-05T14:11:48.090Z,7.17
2019-05-05T14:14:16.433Z,10.87
2019-05-05T14:16:44.841Z,9.57
2019-05-05T14:19:14.659Z,8.13
2019-05-05T14:21:44.544Z,12.27
2019-05-05T14:24:17.737Z,7.73
2019-05-05T14:26:46.105Z,11.73
2019-05-05T14:29:15.995Z,9.07
2019-05-05T14:31:45.070Z,8.10
2019-05-05T14:34:17.930Z,11.60
2019-05-05T14:36:50.898Z,8.50
2019-05-05T14:39:20.224Z,12.30
2019-05-05T14:41:48.522Z,10.07
2019-05-05T14:44:16.904Z,9.33
2019-05-05T14:46:45.176Z,10.30
2019-05-05T14:49:14.081Z,9.40
2019-05-05T14:51:44.515Z,12.50
2019-05-05T14:54:14.613Z,7.53
2019-05-05T14:56:44.059Z,9.17
2019-05-05T14:59:14.238Z,10.17
2019-05-05T15:01:44.531Z,8.37
2019-05-05T15:04:14.210Z,7.77
2019-05-05T15:06:44.154Z,8.43
2019-05-05T15:09:24.679Z,5.30
2019-05-05T15:12:10.633Z,8.83
2019-05-05T15:14:38.974Z,9.37
2019-05-05T15:17:07.273Z,8.97
2019-05-05T15:19:35.576Z,6.03
2019-05-05T15:22:03.876Z,8.17
2019-05-05T15:24:33.613Z,8.70
2019-05-05T15:27:01.896Z,7.30
2019-05-05T15:29:30.188Z,9.50
2019-05-05T15:31:58.517Z,9.23
2019-05-05T15:34:26.806Z,9.43
2019-05-05T15:36:55.086Z,7.07
2019-05-05T15:39:24.578Z,10.00
2019-05-05T15:41:54.247Z,9.13
2019-05-05T15:44:24.101Z,6.83
2019-05-05T15:46:55.719Z,8.77
2019-05-05T15:49:22.930Z,6.50
2019-05-05T15:51:51.299Z,11.03
2019-05-05T15:54:19.605Z,6.67
2019-05-05T15:56:47.965Z,7.50
2019-05-05T15:59:16.259Z,7.53
2019-05-05T16:01:44.551Z,8.50
2019-05-05T16:04:14.111Z,12.27
2019-05-05T16:06:44.426Z,7.50
2019-05-05T16:09:13.724Z,8.47
2019-05-05T16:11:44.416Z,9.00
2019-05-05T16:14:14.320Z,7.10
2019-05-05T16:16:54.164Z,9.17
2019-05-05T16:19:28.125Z,11.87
2019-05-05T16:22:00.904Z,13.90
2019-05-05T16:24:30.904Z,9.93
2019-05-05T16:26:59.246Z,10.93
2019-05-05T16:29:27.619Z,10.90
2019-05-05T16:31:55.904Z,10.63
2019-05-05T16:34:24.273Z,15.00
2019-05-05T16:36:56.666Z,9.43
2019-05-05T16:39:22.544Z,12.37
2019-05-05T16:41:50.904Z,9.30
2019-05-05T16:44:19.246Z,10.23
2019-05-05T16:46:47.553Z,9.87
2019-05-05T16:49:15.831Z,10.00
2019-05-05T16:51:48.481Z,10.10
2019-05-05T16:54:18.390Z,11.47
2019-05-05T16:56:47.165Z,9.80
2019-05-05T16:59:16.569Z,9.60
2019-05-05T17:01:45.029Z,12.00
2019-05-05T17:04:14.284Z,7.37
2019-05-05T17:06:45.615Z,10.40
2019-05-05T17:09:14.971Z,10.67
2019-05-05T17:11:44.435Z,12.50
2019-05-05T17:14:23.524Z,9.30
2019-05-05T17:16:59.292Z,11.97
2019-05-05T17:19:29.285Z,12.67
2019-05-05T17:22:08.103Z,9.30
2019-05-05T17:24:38.718Z,12.80
2019-05-05T17:27:06.475Z,7.87
2019-05-05T17:29:34.807Z,13.73
2019-05-05T17:32:03.175Z,12.50
2019-05-05T17:34:31.510Z,10.27
2019-05-05T17:36:59.821Z,10.70
2019-05-05T17:39:29.830Z,11.73
2019-05-05T17:42:02.489Z,14.57
2019-05-05T17:44:47.250Z,15.50
2019-05-05T17:47:26.177Z,12.27
2019-05-05T17:50:03.987Z,13.33
2019-05-05T17:52:34.333Z,10.00
2019-05-05T17:55:04.703Z,13.27
2019-05-05T17:57:34.537Z,13.93
2019-05-05T18:00:04.334Z,12.03
2019-05-05T18:02:34.359Z,11.13
2019-05-05T18:05:04.485Z,13.13
2019-05-05T18:07:34.677Z,12.40
2019-05-05T18:10:07.668Z,9.87
2019-05-05T18:12:44.541Z,13.43
2019-05-05T18:15:14.611Z,10.53
2019-05-05T18:17:43.388Z,11.57
2019-05-05T18:20:11.695Z,20.63
2019-05-05T18:22:39.948Z,14.37
2019-05-05T18:25:08.260Z,11.50
2019-05-05T18:27:36.528Z,8.90
2019-05-05T18:30:05.934Z,9.67
2019-05-05T18:32:34.285Z,15.97
2019-05-05T18:35:06.120Z,14.40
2019-05-05T18:37:34.009Z,14.07
2019-05-05T18:40:04.124Z,12.33
2019-05-05T18:42:33.958Z,14.17
2019-05-05T18:45:06.970Z,18.20
2019-05-05T18:47:35.261Z,16.10
2019-05-05T18:50:05.660Z,12.33
2019-05-05T18:52:34.629Z,16.27
2019-05-05T18:55:04.497Z,13.23
2019-05-05T18:57:34.116Z,13.93
2019-05-05T19:00:03.856Z,17.70
2019-05-05T19:02:45.985Z,20.77
2019-05-05T19:05:15.970Z,17.07
2019-05-05T19:07:55.547Z,14.43
2019-05-05T19:10:18.885Z,18.00
2019-05-05T19:12:50.288Z,12.40
2019-05-05T19:15:17.225Z,10.73
2019-05-05T19:17:45.490Z,10.97
2019-05-05T19:20:15.409Z,14.40
2019-05-05T19:22:43.730Z,15.93
2019-05-05T19:25:14.938Z,14.50
2019-05-05T19:27:44.490Z,16.30
2019-05-05T19:30:13.803Z,17.03
2019-05-05T19:32:43.741Z,12.20
2019-05-05T19:35:12.123Z,15.03
2019-05-05T19:37:40.420Z,13.57
2019-05-05T19:40:08.870Z,12.40
2019-05-05T19:42:37.220Z,11.70
2019-05-05T19:45:07.100Z,12.47
2019-05-05T19:47:35.377Z,14.93
2019-05-05T19:50:08.173Z,15.53
2019-05-05T19:52:36.492Z,16.77
2019-05-05T19:55:05.777Z,16.30
2019-05-05T19:57:36.123Z,13.87
2019-05-05T20:00:05.359Z,12.23
2019-05-05T20:02:34.092Z,14.23
2019-05-05T20:05:04.315Z,17.40
2019-05-05T20:07:32.687Z,19.20
2019-05-05T20:10:00.964Z,13.60
2019-05-05T20:12:29.311Z,18.00
2019-05-05T20:14:58.385Z,18.63
2019-05-05T20:17:33.946Z,18.90
2019-05-05T20:20:08.969Z,17.53
2019-05-05T20:22:37.315Z,16.23
2019-05-05T20:25:08.392Z,19.70
2019-05-05T20:27:36.690Z,14.23
2019-05-05T20:30:06.759Z,18.03
2019-05-05T20:32:36.859Z,18.73
2019-05-05T20:35:10.307Z,19.13
2019-05-05T20:37:46.490Z,21.57
2019-05-05T20:40:16.455Z,19.17
2019-05-05T20:42:44.951Z,17.93
2019-05-05T20:45:14.921Z,17.83
2019-05-05T20:47:44.001Z,18.20
2019-05-05T20:50:12.404Z,21.83
2019-05-05T20:52:40.709Z,19.93
2019-05-05T20:55:09.036Z,17.17
2019-05-05T20:57:37.303Z,18.57
2019-05-05T21:00:05.835Z,18.13
2019-05-05T21:02:34.098Z,22.67
2019-05-05T21:05:04.093Z,14.07
2019-05-05T21:07:34.492Z,16.30
2019-05-05T21:10:04.119Z,18.43
2019-05-05T21:12:40.102Z,18.97
2019-05-05T21:15:04.671Z,15.60
2019-05-05T21:17:33.773Z,18.80
2019-05-05T21:20:04.188Z,14.47
2019-05-05T21:22:44.278Z,15.97
2019-05-05T21:25:25.900Z,13.83
2019-05-05T21:27:54.174Z,20.60
2019-05-05T21:30:23.814Z,21.53
2019-05-05T21:32:54.463Z,22.77
2019-05-05T21:35:24.008Z,16.17
2019-05-05T21:37:54.343Z,13.47
2019-05-05T21:40:25.013Z,20.40
2019-05-05T21:42:54.150Z,14.27
2019-05-05T21:45:22.759Z,21.67
2019-05-05T21:47:51.025Z,13.53
2019-05-05T21:50:24.067Z,18.13
2019-05-05T21:52:57.190Z,14.50
2019-05-05T21:55:27.149Z,14.03
2019-05-05T21:57:59.757Z,14.77
2019-05-05T22:00:45.792Z,16.83
2019-05-05T22:03:15.717Z,15.33
2019-05-05T22:05:44.079Z,16.50
2019-05-05T22:08:14.341Z,15.07
2019-05-05T22:10:42.425Z,13.27
2019-05-05T22:13:10.689Z,14.53
2019-05-05T22:15:38.979Z,12.47
2019-05-05T22:18:07.241Z,16.30
2019-05-05T22:20:37.237Z,18.50
2019-05-05T22:23:05.510Z,10.73
2019-05-05T22:25:34.211Z,15.90
2019-05-05T22:28:04.287Z,13.10
2019-05-05T22:30:34.431Z,13.27
2019-05-05T22:33:05.786Z,14.47
2019-05-05T22:35:34.350Z,15.90
2019-05-05T22:38:05.828Z,11.93
2019-05-05T22:40:34.625Z,12.17
2019-05-05T22:43:03.656Z,12.03
2019-05-05T22:45:34.099Z,13.47
2019-05-05T22:48:02.059Z,17.20
2019-05-05T22:50:30.345Z,16.83
2019-05-05T22:52:58.583Z,10.23
2019-05-05T22:55:26.885Z,13.63
2019-05-05T22:57:55.129Z,17.47
2019-05-05T23:00:29.054Z,14.90
2019-05-05T23:03:07.159Z,15.47
2019-05-05T23:05:51.918Z,17.57
2019-05-05T23:08:20.180Z,16.53
2019-05-05T23:10:48.444Z,14.77
2019-05-05T23:13:16.845Z,19.97
2019-05-05T23:15:46.728Z,18.23
2019-05-05T23:18:16.644Z,19.27
2019-05-05T23:20:48.105Z,14.30
2019-05-05T23:23:24.039Z,15.23
2019-05-05T23:25:56.975Z,17.10
2019-05-05T23:28:26.465Z,15.83
2019-05-05T23:30:54.837Z,17.67
2019-05-05T23:33:24.981Z,19.40
2019-05-05T23:35:55.024Z,20.90
2019-05-05T23:38:23.948Z,18.50
2019-05-05T23:40:54.113Z,21.90
2019-05-05T23:43:24.615Z,22.67
2019-05-05T23:45:54.053Z,19.50
2019-05-05T23:48:24.079Z,18.63
2019-05-05T23:50:54.230Z,14.80
2019-05-05T23:53:24.480Z,12.67
2019-05-05T23:55:54.628Z,16.87
2019-05-05T23:58:23.973Z,19.40
